Flight Track Log - Related Links

Times and Time Zones

All times are in EDT time to prevent confusion due to time zone crossing. See the CTL22 flight status page for this flight to view local times or setup timezone preferences in your user account.

Time Position Orientation Groundspeed Altitude Reporting Facility
EDT Latitude Longitude Course Direction KTS MPH feet Rate Location/Type
Thu 08:04:14 PM 42.2506 -85.4189 103° East 131 151 4,400  Level Chicago Center
Thu 08:05:16 PM 42.2339 -85.3700 115° Southeast 142 163 5,200 726 Climbing Chicago Center
Thu 08:06:18 PM 42.2136 -85.3211 119° Southeast 148 170 5,900 726 Climbing Chicago Center
Thu 08:07:00 PM 42.1810 -85.2340 103° East  Level Estimated
Thu 08:07:20 PM 42.1939 -85.2722 119° Southeast 148 170 6,700  Level Chicago Center
Thu 08:08:00 PM 42.1702 -85.1705 103° East  Level Estimated
Thu 08:08:22 PM 42.1678 -85.2114 120° Southeast 153 176 7,000  Level Chicago Center
Thu 08:09:00 PM 42.1594 -85.1071 103° East  Level Estimated
Thu 08:09:25 PM 42.1436 -85.1514 118° Southeast 172 198 7,100  Level Chicago Center
Thu 08:10:27 PM 42.1208 -85.0900 117° Southeast 181 208 7,000 -48 Descending Chicago Center
Thu 08:11:29 PM 42.0969 -85.0297 118° Southeast 181 208 7,000  Level Chicago Center
Thu 08:12:31 PM 42.0731 -84.9714 119° Southeast 179 206 7,000  Level Chicago Center
Thu 08:13:33 PM 42.0478 -84.9136 120° Southeast 178 205 7,000 48 Level Chicago Center
Thu 08:14:35 PM 42.0208 -84.8425 117° Southeast 178 205 7,100 48 Climbing Chicago Center
Thu 08:15:37 PM 41.9972 -84.7833 118° Southeast 179 206 7,100  Level Chicago Center
Thu 08:16:39 PM 41.9731 -84.7250 119° Southeast 179 206 7,100  Level Chicago Center
Thu 08:17:41 PM 41.9519 -84.6661 116° Southeast 176 203 7,100  Level Chicago Center
Thu 08:18:44 PM 41.9269 -84.6069 120° Southeast 179 206 7,100  Level Chicago Center
Thu 08:19:46 PM 41.9019 -84.5497 120° Southeast 178 205 7,100  Level Chicago Center
Thu 08:20:48 PM 41.8731 -84.4781 118° Southeast 180 207 7,100 -48 Level Chicago Center
Thu 08:21:50 PM 41.8486 -84.4208 120° Southeast 179 206 7,000 -48 Descending Chicago Center
Thu 08:22:52 PM 41.8264 -84.3611 117° Southeast 179 206 7,000 48 Level Chicago Center
Thu 08:23:54 PM 41.8044 -84.3011 116° Southeast 180 207 7,100  Climbing Chicago Center
Thu 08:24:56 PM 41.7847 -84.2400 113° Southeast 180 207 7,000 -48 Descending Chicago Center
Thu 08:25:58 PM 41.7617 -84.1828 118° Southeast 177 204 7,000  Level Chicago Center
Thu 08:27:00 PM 41.7494 -84.1072 102° East 176 203 7,000  Level Chicago Center

Login

Don't have an account? Register now (free) for customized features, flight alerts, and more!